createdAt,value
2018-02-11T00:02:23.950Z,38.20
2018-02-11T00:04:52.741Z,38.13
2018-02-11T00:07:21.244Z,37.33
2018-02-11T00:09:50.208Z,38.10
2018-02-11T00:12:18.732Z,36.17
2018-02-11T00:14:47.504Z,37.83
2018-02-11T00:17:16.073Z,36.33
2018-02-11T00:19:45.102Z,38.10
2018-02-11T00:22:13.800Z,37.40
2018-02-11T00:24:42.282Z,39.40
2018-02-11T00:27:10.768Z,37.10
2018-02-11T00:29:39.301Z,37.97
2018-02-11T00:32:07.817Z,38.07
2018-02-11T00:34:37.564Z,39.30
2018-02-11T00:37:07.926Z,36.30
2018-02-11T00:39:37.943Z,35.97
2018-02-11T00:42:06.995Z,37.47
2018-02-11T00:44:36.874Z,35.27
2018-02-11T00:47:06.128Z,38.33
2018-02-11T00:49:34.935Z,37.00
2018-02-11T00:52:04.302Z,39.63
2018-02-11T00:54:32.901Z,35.87
2018-02-11T00:57:01.404Z,37.27
2018-02-11T00:59:30.577Z,36.90
2018-02-11T01:01:59.524Z,36.30
2018-02-11T01:04:28.504Z,36.67
2018-02-11T01:06:58.048Z,36.90
2018-02-11T01:09:26.776Z,36.00
2018-02-11T01:11:55.337Z,35.80
2018-02-11T01:14:23.812Z,38.00
2018-02-11T01:16:52.473Z,39.80
2018-02-11T01:19:21.009Z,36.50
2018-02-11T01:21:49.515Z,35.60
2018-02-11T01:24:18.205Z,36.67
2018-02-11T01:26:46.800Z,36.53
2018-02-11T01:29:15.283Z,36.00
2018-02-11T01:31:43.777Z,35.80
2018-02-11T01:34:12.288Z,36.27
2018-02-11T01:36:41.145Z,35.97
2018-02-11T01:39:09.635Z,36.10
2018-02-11T01:41:38.156Z,35.97
2018-02-11T01:44:07.584Z,36.60
2018-02-11T01:46:36.364Z,38.67
2018-02-11T01:49:04.936Z,34.70
2018-02-11T01:51:33.664Z,36.00
2018-02-11T01:54:02.155Z,34.83
2018-02-11T01:56:31.473Z,36.00
2018-02-11T01:59:00.325Z,34.87
2018-02-11T02:01:29.222Z,35.30
2018-02-11T02:03:59.202Z,35.57
2018-02-11T02:06:27.894Z,35.67
2018-02-11T02:08:56.481Z,34.97
2018-02-11T02:11:24.984Z,35.00
2018-02-11T02:13:53.840Z,35.80
2018-02-11T02:16:22.628Z,35.20
2018-02-11T02:18:51.141Z,35.13
2018-02-11T02:21:19.652Z,36.27
2018-02-11T02:23:48.204Z,35.80
2018-02-11T02:26:16.760Z,38.60
2018-02-11T02:28:45.487Z,38.50
2018-02-11T02:31:13.976Z,37.33
2018-02-11T02:33:42.521Z,36.37
2018-02-11T02:36:11.029Z,37.30
2018-02-11T02:38:39.484Z,36.50
2018-02-11T02:41:11.200Z,38.30
2018-02-11T02:43:39.826Z,40.30
2018-02-11T02:46:08.452Z,37.23
2018-02-11T02:48:36.988Z,35.37
2018-02-11T02:51:05.543Z,36.10
2018-02-11T02:53:34.132Z,36.20
2018-02-11T02:56:02.996Z,37.60
2018-02-11T02:58:31.509Z,37.40
2018-02-11T03:01:00.075Z,35.60
2018-02-11T03:03:28.570Z,36.77
2018-02-11T03:05:57.191Z,36.30
2018-02-11T03:08:25.729Z,37.40
2018-02-11T03:10:54.323Z,38.20
2018-02-11T03:13:22.823Z,35.37
2018-02-11T03:15:51.517Z,38.37
2018-02-11T03:18:20.122Z,35.70
2018-02-11T03:20:49.405Z,35.20
2018-02-11T03:23:17.980Z,36.50
2018-02-11T03:25:46.685Z,37.70
2018-02-11T03:28:15.524Z,35.70
2018-02-11T03:30:47.713Z,36.77
2018-02-11T03:33:22.268Z,35.60
2018-02-11T03:35:50.811Z,35.60
2018-02-11T03:38:22.369Z,35.53
2018-02-11T03:40:51.066Z,36.03
2018-02-11T03:43:19.722Z,35.57
2018-02-11T03:45:48.240Z,37.30
2018-02-11T03:48:16.700Z,35.20
2018-02-11T03:50:45.221Z,35.30
2018-02-11T03:53:13.848Z,35.50
2018-02-11T03:55:42.583Z,35.30
2018-02-11T03:58:11.231Z,36.47
2018-02-11T04:00:39.748Z,34.33
2018-02-11T04:03:08.290Z,37.07
2018-02-11T04:05:36.822Z,34.77
2018-02-11T04:08:05.320Z,35.20
2018-02-11T04:10:34.822Z,36.07
2018-02-11T04:13:03.766Z,35.57
2018-02-11T04:15:32.800Z,36.20
2018-02-11T04:18:01.750Z,37.00
2018-02-11T04:20:30.358Z,36.60
2018-02-11T04:22:59.332Z,35.90
2018-02-11T04:25:27.830Z,36.27
2018-02-11T04:27:56.291Z,36.90
2018-02-11T04:30:24.781Z,39.17
2018-02-11T04:32:53.280Z,34.83
2018-02-11T04:35:21.804Z,36.87
2018-02-11T04:37:50.605Z,34.87
2018-02-11T04:40:19.104Z,36.07
2018-02-11T04:42:47.584Z,34.87
2018-02-11T04:45:16.285Z,36.37
2018-02-11T04:47:47.693Z,34.53
2018-02-11T04:50:16.590Z,34.60
2018-02-11T04:52:45.471Z,33.87
2018-02-11T04:55:14.101Z,35.70
2018-02-11T04:57:42.573Z,35.30
2018-02-11T05:06:02.218Z,34.97
2018-02-11T05:08:30.744Z,35.90
2018-02-11T05:10:59.251Z,36.00
2018-02-11T05:13:27.768Z,36.33
2018-02-11T05:15:56.310Z,35.47
2018-02-11T05:18:24.956Z,35.10
2018-02-11T05:20:53.598Z,33.73
2018-02-11T05:23:22.305Z,34.80
2018-02-11T05:25:51.375Z,36.53
2018-02-11T05:28:20.063Z,36.17
2018-02-11T05:30:48.955Z,36.33
2018-02-11T05:33:17.435Z,35.93
2018-02-11T05:35:46.112Z,36.07
2018-02-11T05:38:14.660Z,35.40
2018-02-11T05:40:43.280Z,37.63
2018-02-11T05:43:11.809Z,34.40
2018-02-11T05:45:42.594Z,35.60
2018-02-11T05:48:13.779Z,35.17
2018-02-11T05:50:42.094Z,36.60
2018-02-11T05:53:10.362Z,34.57
2018-02-11T05:55:38.714Z,35.10
2018-02-11T05:58:07.022Z,35.40
2018-02-11T06:00:35.570Z,34.50
2018-02-11T06:03:03.831Z,32.83
2018-02-11T06:05:32.157Z,35.20
2018-02-11T06:08:00.439Z,33.10
2018-02-11T06:10:28.846Z,32.47
2018-02-11T06:12:57.126Z,32.73
2018-02-11T06:15:25.486Z,32.43
2018-02-11T06:17:53.892Z,33.03
2018-02-11T06:20:22.211Z,31.40
2018-02-11T06:22:50.603Z,29.33
2018-02-11T06:25:18.949Z,30.90
2018-02-11T06:27:47.377Z,28.30
2018-02-11T06:30:15.667Z,30.80
2018-02-11T06:32:44.143Z,31.13
2018-02-11T06:35:12.450Z,29.90
2018-02-11T06:37:40.727Z,30.30
2018-02-11T06:40:09.191Z,28.33
2018-02-11T06:42:37.481Z,27.87
2018-02-11T06:45:05.826Z,26.93
2018-02-11T06:47:34.151Z,28.80
2018-02-11T06:50:02.495Z,28.77
2018-02-11T06:52:30.822Z,26.00
2018-02-11T06:54:59.089Z,27.00
2018-02-11T06:57:27.451Z,28.27
2018-02-11T06:59:55.744Z,26.00
2018-02-11T07:02:24.253Z,26.40
2018-02-11T07:04:52.587Z,26.10
2018-02-11T07:07:20.920Z,25.60
2018-02-11T07:09:49.191Z,26.13
2018-02-11T07:12:17.706Z,24.40
2018-02-11T07:14:46.015Z,23.57
2018-02-11T07:17:14.468Z,23.73
2018-02-11T07:19:42.747Z,22.90
2018-02-11T07:22:11.138Z,22.17
2018-02-11T07:24:39.641Z,21.53
2018-02-11T07:27:07.982Z,22.40
2018-02-11T07:29:36.259Z,21.90
2018-02-11T07:32:04.579Z,21.63
2018-02-11T07:34:32.885Z,18.13
2018-02-11T07:37:01.265Z,20.73
2018-02-11T07:39:29.551Z,20.20
2018-02-11T07:41:57.899Z,20.13
2018-02-11T07:44:26.257Z,18.70
2018-02-11T07:46:54.613Z,19.93
2018-02-11T07:49:23.102Z,21.07
2018-02-11T07:51:51.597Z,19.53
2018-02-11T07:54:19.891Z,18.30
2018-02-11T07:56:48.278Z,18.30
2018-02-11T07:59:16.775Z,18.77
2018-02-11T08:01:45.095Z,18.20
2018-02-11T08:04:13.402Z,17.97
2018-02-11T08:06:41.960Z,18.00
2018-02-11T08:09:10.472Z,17.13
2018-02-11T08:11:39.053Z,18.13
2018-02-11T08:14:07.566Z,17.20
2018-02-11T08:16:36.183Z,16.17
2018-02-11T08:19:04.490Z,16.83
2018-02-11T08:21:33.190Z,17.03
2018-02-11T08:24:01.730Z,16.73
2018-02-11T08:26:30.084Z,17.00
2018-02-11T08:29:01.184Z,16.13
2018-02-11T08:31:29.627Z,15.90
2018-02-11T08:33:59.288Z,13.90
2018-02-11T08:36:28.094Z,16.10
2018-02-11T08:38:57.891Z,16.27
2018-02-11T08:41:26.405Z,16.77
2018-02-11T08:43:54.712Z,15.93
2018-02-11T08:46:23.088Z,15.00
2018-02-11T08:48:51.954Z,15.60
2018-02-11T08:51:20.619Z,14.90
2018-02-11T08:53:49.523Z,15.07
2018-02-11T08:56:17.905Z,15.53
2018-02-11T08:58:46.268Z,14.63
2018-02-11T09:01:14.876Z,14.93
2018-02-11T09:03:43.188Z,13.67
2018-02-11T09:06:12.714Z,13.77
2018-02-11T09:08:41.050Z,14.30
2018-02-11T09:11:10.464Z,12.60
2018-02-11T09:13:39.020Z,14.10
2018-02-11T09:16:07.349Z,13.70
2018-02-11T09:18:35.633Z,11.47
2018-02-11T09:21:05.146Z,13.07
2018-02-11T09:23:33.430Z,13.30
2018-02-11T09:26:02.143Z,12.60
2018-02-11T09:28:30.991Z,11.80
2018-02-11T09:31:00.536Z,12.47
2018-02-11T09:33:29.432Z,11.77
2018-02-11T09:35:58.027Z,11.17
2018-02-11T09:38:26.568Z,11.30
2018-02-11T09:40:55.059Z,11.03
2018-02-11T09:43:23.508Z,26.57
2018-02-11T09:45:51.834Z,12.33
2018-02-11T09:48:20.155Z,12.60
2018-02-11T09:50:48.457Z,11.50
2018-02-11T09:53:16.762Z,11.43
2018-02-11T09:55:45.071Z,12.07
2018-02-11T09:58:13.364Z,10.37
2018-02-11T10:00:41.676Z,12.00
2018-02-11T10:03:09.992Z,11.47
2018-02-11T10:05:38.355Z,9.70
2018-02-11T10:08:06.689Z,11.77
2018-02-11T10:10:35.171Z,10.53
2018-02-11T10:13:03.735Z,11.27
2018-02-11T10:15:34.317Z,9.60
2018-02-11T10:18:02.619Z,8.83
2018-02-11T10:20:30.952Z,10.47
2018-02-11T10:22:59.247Z,9.90
2018-02-11T10:25:27.727Z,9.13
2018-02-11T10:27:56.014Z,8.30
2018-02-11T10:30:24.446Z,8.80
2018-02-11T10:32:52.711Z,8.70
2018-02-11T10:35:21.206Z,9.80
2018-02-11T10:37:49.550Z,9.20
2018-02-11T10:40:17.855Z,10.13
2018-02-11T10:42:46.221Z,9.30
2018-02-11T10:45:14.519Z,9.17
2018-02-11T10:47:42.998Z,9.37
2018-02-11T10:50:11.317Z,9.70
2018-02-11T10:52:39.605Z,9.27
2018-02-11T10:55:08.912Z,9.33
2018-02-11T10:57:37.236Z,10.43
2018-02-11T11:00:05.603Z,9.90
2018-02-11T11:02:33.904Z,11.47
2018-02-11T11:05:02.409Z,9.50
2018-02-11T11:08:33.834Z,9.97
2018-02-11T11:11:02.342Z,11.20
2018-02-11T11:13:30.609Z,9.50
2018-02-11T11:15:58.918Z,9.93
2018-02-11T11:18:27.161Z,11.57
2018-02-11T11:20:55.565Z,11.33
2018-02-11T11:23:23.896Z,11.40
2018-02-11T11:25:52.334Z,11.90
2018-02-11T11:28:20.662Z,10.80
2018-02-11T11:30:48.974Z,11.20
2018-02-11T11:33:17.316Z,11.83
2018-02-11T11:35:45.621Z,11.13
2018-02-11T11:38:13.955Z,10.80
2018-02-11T11:40:42.404Z,10.60
2018-02-11T11:43:10.724Z,11.30
2018-02-11T11:45:39.046Z,10.43
2018-02-11T11:48:07.362Z,9.20
2018-02-11T11:50:35.649Z,9.90
2018-02-11T11:53:03.903Z,9.03
2018-02-11T11:55:32.440Z,8.67
2018-02-11T11:58:00.727Z,8.90
2018-02-11T12:00:29.013Z,9.17
2018-02-11T12:02:57.726Z,9.03
2018-02-11T12:05:26.049Z,8.93
2018-02-11T12:07:54.570Z,8.77
2018-02-11T12:10:22.872Z,9.27
2018-02-11T12:12:51.267Z,8.50
2018-02-11T12:15:21.813Z,8.40
2018-02-11T12:17:54.949Z,9.10
2018-02-11T12:20:23.787Z,9.60
2018-02-11T12:22:52.685Z,9.40
2018-02-11T12:25:21.065Z,9.77
2018-02-11T12:27:49.364Z,9.70
2018-02-11T12:30:17.659Z,10.07
2018-02-11T12:32:45.959Z,11.03
2018-02-11T12:35:14.446Z,10.13
2018-02-11T12:37:42.886Z,10.20
2018-02-11T12:40:11.209Z,10.40
2018-02-11T12:42:39.678Z,11.70
2018-02-11T12:45:08.635Z,11.70
2018-02-11T12:47:36.942Z,10.33
2018-02-11T12:50:05.255Z,11.60
2018-02-11T12:52:33.546Z,11.30
2018-02-11T12:55:01.813Z,11.23
2018-02-11T12:57:30.380Z,11.33
2018-02-11T12:59:58.666Z,10.60
2018-02-11T13:02:27.025Z,11.37
2018-02-11T13:04:56.693Z,11.80
2018-02-11T13:07:25.750Z,11.27
2018-02-11T13:09:54.540Z,10.97
2018-02-11T13:12:23.122Z,11.00
2018-02-11T13:14:51.404Z,12.50
2018-02-11T13:17:19.778Z,11.00
2018-02-11T13:19:50.676Z,11.23
2018-02-11T13:22:21.101Z,10.83
2018-02-11T13:24:50.124Z,11.53
2018-02-11T13:27:18.994Z,11.40
2018-02-11T13:29:48.274Z,10.37
2018-02-11T13:32:16.746Z,11.40
2018-02-11T13:34:45.740Z,10.73
2018-02-11T13:37:14.824Z,12.47
2018-02-11T13:39:44.011Z,11.80
2018-02-11T13:42:12.665Z,11.80
2018-02-11T13:44:40.995Z,12.13
2018-02-11T13:47:12.220Z,12.53
2018-02-11T13:49:42.808Z,11.70
2018-02-11T13:52:11.203Z,12.90
2018-02-11T13:54:39.569Z,11.73
2018-02-11T13:57:08.016Z,12.00
2018-02-11T13:59:36.387Z,12.30
2018-02-11T14:02:06.008Z,11.40
2018-02-11T14:04:35.442Z,11.50
2018-02-11T14:07:03.796Z,12.60
2018-02-11T14:09:36.704Z,13.07
2018-02-11T14:12:05.330Z,11.70
2018-02-11T14:14:34.260Z,13.53
2018-02-11T14:17:02.790Z,12.90
2018-02-11T14:19:31.996Z,12.53
2018-02-11T14:22:00.523Z,13.17
2018-02-11T14:24:28.839Z,14.00
2018-02-11T14:26:57.578Z,14.93
2018-02-11T14:29:26.071Z,14.53
2018-02-11T14:31:55.281Z,15.60
2018-02-11T14:34:23.922Z,14.87
2018-02-11T14:37:05.644Z,14.77
2018-02-11T14:48:56.438Z,14.43
2018-02-11T14:51:25.034Z,13.53
2018-02-11T14:54:01.588Z,14.77
2018-02-11T14:56:57.170Z,14.90
2018-02-11T15:03:08.885Z,13.73
2018-02-11T15:10:50.246Z,14.93
2018-02-11T15:16:27.256Z,15.40
2018-02-11T15:19:06.044Z,15.67
2018-02-11T15:21:34.780Z,13.90
2018-02-11T21:56:43.199Z,7.83
2018-02-11T21:59:11.314Z,9.80
2018-02-11T22:01:39.759Z,8.30
2018-02-11T22:04:08.055Z,9.17
2018-02-11T22:06:36.347Z,8.47
2018-02-11T22:09:05.066Z,7.60
2018-02-11T22:11:33.450Z,10.43
2018-02-11T22:14:01.922Z,10.30
2018-02-11T22:16:32.120Z,9.00
2018-02-11T22:19:01.039Z,9.80
2018-02-11T22:21:29.375Z,8.60
2018-02-11T22:23:57.846Z,8.80
2018-02-11T22:26:26.410Z,8.70
2018-02-11T22:29:00.290Z,8.57
2018-02-11T22:31:32.147Z,7.83
2018-02-11T22:34:00.899Z,8.07
2018-02-11T22:36:29.849Z,8.67
2018-02-11T22:38:59.344Z,8.40
2018-02-11T22:41:28.014Z,7.50
2018-02-11T22:43:57.925Z,8.93
2018-02-11T22:46:26.375Z,8.30
2018-02-11T22:48:55.510Z,9.10
2018-02-11T22:51:30.434Z,9.00
2018-02-11T22:53:58.745Z,8.90
2018-02-11T22:56:27.561Z,9.40
2018-02-11T23:01:24.295Z,9.17
2018-02-11T23:03:52.932Z,9.00
2018-02-11T23:06:21.417Z,8.37
2018-02-11T23:08:49.689Z,8.17
2018-02-11T23:11:18.010Z,9.50
2018-02-11T23:13:46.418Z,9.10
2018-02-11T23:16:14.878Z,10.00
2018-02-11T23:18:43.171Z,9.40
2018-02-11T23:21:11.488Z,8.70
2018-02-11T23:23:40.008Z,8.30
2018-02-11T23:26:08.317Z,9.20
2018-02-11T23:28:36.906Z,10.30
2018-02-11T23:31:05.330Z,9.20
2018-02-11T23:33:33.851Z,9.70
2018-02-11T23:36:02.151Z,9.57
2018-02-11T23:38:31.023Z,11.30
2018-02-11T23:40:59.529Z,9.83
2018-02-11T23:43:27.938Z,14.20
2018-02-11T23:45:56.430Z,14.17
2018-02-11T23:48:24.780Z,13.47
2018-02-11T23:50:54.424Z,10.63
2018-02-11T23:53:24.258Z,10.80
2018-02-11T23:55:52.742Z,12.83
2018-02-11T23:58:21.354Z,10.40
